San Luis Obispo, California
Current Conditions -  °F | °C
As of 6:56 AM on Thursday 30 Oct 2014 (Local Time) from KSBP Reporting Station
Clear Clear  
Wind Chill: 54°   Ceiling: Unl
Heat Index: 54°   Visibility: 10mi
Dew Point: 42°   Wind: 5mph
Humidity: 64%   Direction: 100°E
Pressure: 29.96"   Gusts: NA
Location:  35.29°N, 120.66°W
Report Text: KSBP 301356Z 10004KT 10SM CLR 12/06 A2996 RMK AO2 SLP143 T01220056
Loading
Personal Weather Stations






























Interactive Weather Map
Tropical Storm Tracking
New forecast layout! Learn more

10-Day Weather Forecast

Advertisements
Track Severe Weather on mobile